Time;durP1;ratioP1;P1;durP2;ratioP2;P2;SDS_P1;SDS_P2;PMS_P1;PMS_P2;Temp;Humidity;BMP_temperature;BMP_pressure;BME280_temperature;BME280_humidity;BME280_pressure;Samples;Min_cycle;Max_cycle;Signal;HPM_P1;HPM_P2
2022/01/09 00:00:36;;;;;;;11.07;9.98;;;;;;;2.91;100.00;98791.88;4709671;30;20530;-82
2022/01/09 00:03:05;;;;;;;11.35;10.25;;;;;;;2.92;100.00;98793.59;4749201;30;20055;-81
2022/01/09 00:05:35;;;;;;;11.05;9.95;;;;;;;2.92;100.00;98790.13;4708867;30;20695;-81
2022/01/09 00:08:09;;;;;;;10.57;9.55;;;;;;;2.92;100.00;98792.72;4713417;30;20075;-82
2022/01/09 00:10:45;;;;;;;13.07;10.32;;;;;;;2.93;100.00;98791.88;4744387;30;20102;-82
2022/01/09 00:13:14;;;;;;;10.80;9.82;;;;;;;2.92;100.00;98791.00;4710109;30;20470;-85
2022/01/09 00:15:44;;;;;;;10.00;9.00;;;;;;;2.93;100.00;98795.34;4728570;30;20447;-82
2022/01/09 00:18:13;;;;;;;12.25;10.75;;;;;;;2.94;100.00;98796.19;4711944;30;20041;-82
2022/01/09 00:20:42;;;;;;;9.95;8.95;;;;;;;2.95;100.00;98784.06;4700016;30;20316;-81
2022/01/09 00:23:11;;;;;;;11.77;10.32;;;;;;;2.96;100.00;98788.41;4715980;30;20051;-82
2022/01/09 00:25:40;;;;;;;11.95;10.63;;;;;;;2.96;100.00;98789.25;4738916;30;20075;-81
2022/01/09 00:28:09;;;;;;;11.32;10.18;;;;;;;2.98;100.00;98779.72;4730037;30;20519;-82
2022/01/09 00:30:38;;;;;;;11.93;9.98;;;;;;;2.98;100.00;98781.47;4728752;30;20091;-81
2022/01/09 00:33:07;;;;;;;14.77;11.15;;;;;;;2.99;100.00;98785.81;4736609;30;20060;-84
2022/01/09 00:35:36;;;;;;;12.07;10.88;;;;;;;2.99;100.00;98784.06;4695479;30;20610;-82
2022/01/09 00:38:05;;;;;;;11.10;10.07;;;;;;;3.00;100.00;98777.13;4711237;30;20055;-82
2022/01/09 00:40:33;;;;;;;11.68;10.57;;;;;;;3.02;100.00;98788.41;4708467;30;20431;-82
2022/01/09 00:43:02;;;;;;;12.02;10.82;;;;;;;3.02;100.00;98780.59;4706213;30;20078;-83
2022/01/09 00:45:30;;;;;;;12.30;11.10;;;;;;;3.03;100.00;98780.59;4698661;30;20205;-81
2022/01/09 00:47:59;;;;;;;12.75;11.45;;;;;;;3.04;100.00;98774.50;4696652;30;20538;-81
2022/01/09 00:50:27;;;;;;;12.02;10.80;;;;;;;3.05;100.00;98773.66;4711531;30;20177;-81
2022/01/09 00:52:56;;;;;;;13.23;11.88;;;;;;;3.05;100.00;98781.47;4698005;30;20055;-81
2022/01/09 00:55:26;;;;;;;12.95;11.65;;;;;;;3.07;100.00;98784.94;4697454;30;20349;-82
2022/01/09 00:57:54;;;;;;;11.10;10.10;;;;;;;3.07;100.00;98784.06;4705823;30;20055;-81
2022/01/09 01:00:23;;;;;;;13.07;11.75;;;;;;;3.08;100.00;98781.47;4702578;30;20045;-82
2022/01/09 01:02:51;;;;;;;12.75;11.55;;;;;;;3.08;100.00;98778.88;4709968;30;20056;-82
2022/01/09 01:05:20;;;;;;;12.60;11.30;;;;;;;3.08;100.00;98776.28;4716341;30;20056;-82
2022/01/09 01:07:48;;;;;;;11.90;10.68;;;;;;;3.09;100.00;98782.34;4718898;30;20054;-81
2022/01/09 01:10:19;;;;;;;12.00;10.63;;;;;;;3.09;100.00;98775.38;4692147;30;20044;-83
2022/01/09 01:12:49;;;;;;;13.60;10.90;;;;;;;3.09;100.00;98783.19;4711502;30;20064;-81
2022/01/09 01:15:17;;;;;;;13.35;12.05;;;;;;;3.10;100.00;98778.84;4701789;30;20059;-83
2022/01/09 01:17:46;;;;;;;13.70;12.18;;;;;;;3.09;100.00;98775.38;4753089;30;20534;-81
2022/01/09 01:20:20;;;;;;;12.95;11.65;;;;;;;3.10;100.00;98774.53;4723125;30;20542;-82
2022/01/09 01:22:50;;;;;;;13.63;11.85;;;;;;;3.10;100.00;98771.94;4726246;30;20056;-83
2022/01/09 01:25:21;;;;;;;;;;;;;;;3.09;100.00;98780.59;4711201;30;20052;-83
2022/01/09 01:27:56;;;;;;;13.57;11.85;;;;;;;3.10;100.00;98776.25;4760513;30;20010;-82
2022/01/09 01:30:24;;;;;;;11.43;10.38;;;;;;;3.10;100.00;98782.34;4765450;30;20060;-82
2022/01/09 01:32:53;;;;;;;12.43;11.13;;;;;;;3.11;100.00;98780.59;4735226;30;20070;-82
2022/01/09 01:35:21;;;;;;;12.18;11.00;;;;;;;3.10;100.00;98776.25;4753135;30;20047;-83
2022/01/09 01:37:49;;;;;;;13.00;11.77;;;;;;;3.10;100.00;98777.13;4751009;30;20052;-81
2022/01/09 01:40:19;;;;;;;13.00;11.73;;;;;;;3.10;100.00;98771.94;4714734;30;20055;-82
2022/01/09 01:42:47;;;;;;;12.23;11.05;;;;;;;3.10;100.00;98779.75;4700195;30;20354;-82
2022/01/09 01:45:16;;;;;;;12.35;11.15;;;;;;;3.12;100.00;98787.56;4753439;30;20506;-82
2022/01/09 01:47:45;;;;;;;11.95;10.63;;;;;;;3.11;100.00;98786.66;4758130;30;20062;-84
2022/01/09 01:50:14;;;;;;;12.52;11.32;;;;;;;3.12;100.00;98782.34;4757029;30;20052;-82
2022/01/09 01:52:45;;;;;;;12.23;11.02;;;;;;;3.13;100.00;98791.88;4756565;30;20059;-84
2022/01/09 01:55:14;;;;;;;11.32;10.30;;;;;;;3.13;100.00;98790.13;4722707;30;20055;-82
2022/01/09 01:57:44;;;;;;;12.00;10.77;;;;;;;3.13;100.00;98794.47;4728943;30;20059;-82
2022/01/09 02:00:15;;;;;;;12.27;10.63;;;;;;;3.13;100.00;98792.75;4742492;30;20050;-82
2022/01/09 02:02:46;;;;;;;12.15;10.95;;;;;;;3.13;100.00;98790.13;4732600;30;20052;-84
2022/01/09 02:05:15;;;;;;;13.13;11.82;;;;;;;3.13;100.00;98789.28;4717134;30;20059;-82
2022/01/09 02:07:45;;;;;;;11.85;10.45;;;;;;;3.13;100.00;98789.28;4733591;30;20051;-82
2022/01/09 02:10:13;;;;;;;14.20;11.43;;;;;;;3.14;100.00;98791.03;4753819;30;20055;-83
2022/01/09 02:12:41;;;;;;;13.70;12.30;;;;;;;3.14;100.00;98801.44;4693200;30;20399;-83
2022/01/09 02:15:34;;;;;;;13.10;11.80;;;;;;;3.14;100.00;98801.44;4738504;30;20394;-83
2022/01/09 02:18:06;;;;;;;13.95;11.85;;;;;;;3.13;100.00;98800.53;4737604;30;20271;-82
2022/01/09 02:20:36;;;;;;;14.73;13.13;;;;;;;3.14;100.00;98811.84;4737520;30;20039;-83
2022/01/09 02:23:07;;;;;;;14.20;12.63;;;;;;;3.14;100.00;98811.84;4742353;30;20695;-83
2022/01/09 02:25:37;;;;;;;15.13;13.38;;;;;;;3.13;100.00;98805.75;4768623;30;20058;-83
2022/01/09 02:28:07;;;;;;;20.25;13.65;;;;;;;3.14;100.00;98817.06;4710012;30;20063;-83
2022/01/09 02:30:36;;;;;;;15.40;13.80;;;;;;;3.14;100.00;98806.63;4769319;30;20052;-84
2022/01/09 02:33:08;;;;;;;18.13;14.30;;;;;;;3.15;100.00;98817.91;4745320;30;20541;-82
2022/01/09 02:35:37;;;;;;;16.15;14.35;;;;;;;3.15;100.00;98815.31;4766029;30;20039;-83
2022/01/09 02:38:06;;;;;;;16.60;14.70;;;;;;;3.16;100.00;98812.72;4751247;30;20542;-82
2022/01/09 02:40:35;;;;;;;15.70;13.90;;;;;;;3.16;100.00;98830.03;4740260;30;20055;-83
2022/01/09 02:43:04;;;;;;;17.35;14.95;;;;;;;3.17;100.00;98835.25;4742473;30;23370;-83
2022/01/09 02:45:32;;;;;;;16.48;14.55;;;;;;;3.17;100.00;98830.03;4724680;30;20060;-83
2022/01/09 02:48:02;;;;;;;16.70;14.90;;;;;;;3.19;100.00;98841.31;4747885;30;20044;-82
2022/01/09 02:50:39;;;;;;;18.70;16.20;;;;;;;3.20;100.00;98834.41;4759709;30;20063;-84
2022/01/09 02:53:16;;;;;;;21.45;15.90;;;;;;;3.21;100.00;98836.13;4723035;30;20056;-84
2022/01/09 02:55:44;;;;;;;16.10;13.98;;;;;;;3.22;100.00;98836.13;4723119;30;20052;-84
2022/01/09 02:58:14;;;;;;;21.00;15.57;;;;;;;3.22;100.00;98840.47;4732030;30;20050;-83
2022/01/09 03:00:44;;;;;;;18.35;15.82;;;;;;;3.23;100.00;98839.59;4713558;30;20051;-82
2022/01/09 03:03:13;;;;;;;19.40;15.73;;;;;;;3.24;100.00;98844.81;4764222;30;20048;-82
2022/01/09 03:05:42;;;;;;;21.27;16.52;;;;;;;3.26;100.00;98857.81;4756779;30;20056;-82
2022/01/09 03:08:11;;;;;;;18.00;14.93;;;;;;;3.26;100.00;98855.22;4765809;30;20517;-82
2022/01/09 03:10:40;;;;;;;21.30;16.45;;;;;;;3.26;100.00;98858.69;4770350;29;20055;-82
2022/01/09 03:13:08;;;;;;;19.95;15.15;;;;;;;3.29;100.00;98865.66;4737483;30;20048;-82
2022/01/09 03:15:37;;;;;;;24.13;18.67;;;;;;;3.29;100.00;98863.06;4747933;30;20055;-82
2022/01/09 03:18:05;;;;;;;27.70;19.63;;;;;;;3.29;100.00;98858.69;4743133;30;20511;-82
2022/01/09 03:20:34;;;;;;;26.13;19.23;;;;;;;3.29;100.00;98870.84;4784141;29;20047;-82
2022/01/09 03:23:02;;;;;;;22.83;18.15;;;;;;;3.31;100.00;98871.72;4734508;30;20503;-83
2022/01/09 03:25:34;;;;;;;30.05;20.88;;;;;;;3.30;100.00;98865.63;4752012;30;20369;-81
2022/01/09 03:28:03;;;;;;;26.15;20.27;;;;;;;3.31;100.00;98876.94;4744358;30;20158;-82
2022/01/09 03:30:31;;;;;;;29.50;20.48;;;;;;;3.31;100.00;98882.13;4756868;30;20815;-82
2022/01/09 03:33:00;;;;;;;34.42;21.15;;;;;;;3.30;100.00;98880.38;4746376;30;20067;-84
2022/01/09 03:35:29;;;;;;;36.85;22.17;;;;;;;3.30;100.00;98880.38;4772914;30;20254;-83
2022/01/09 03:37:58;;;;;;;29.30;20.15;;;;;;;3.30;100.00;98881.25;4739145;30;20146;-84
2022/01/09 03:40:28;;;;;;;32.42;22.10;;;;;;;3.31;100.00;98877.78;4746748;30;20335;-81
2022/01/09 03:43:00;;;;;;;33.55;21.42;;;;;;;3.33;100.00;98870.00;4763538;30;20055;-82
2022/01/09 03:45:28;;;;;;;32.40;21.30;;;;;;;3.34;100.00;98876.91;4766848;30;20558;-82
2022/01/09 03:47:58;;;;;;;38.55;22.20;;;;;;;3.36;100.00;98884.72;4736142;30;20066;-83
2022/01/09 03:50:27;;;;;;;21.50;14.25;;;;;;;3.39;100.00;98884.75;4740092;30;20051;-82
2022/01/09 03:52:56;;;;;;;29.67;19.00;;;;;;;3.40;100.00;98887.31;4752386;30;20059;-81
2022/01/09 03:55:24;;;;;;;23.33;16.25;;;;;;;3.44;100.00;98889.09;4725257;30;20057;-81
2022/01/09 03:57:53;;;;;;;24.77;16.15;;;;;;;3.48;100.00;98885.63;4752325;30;20538;-81
2022/01/09 04:00:23;;;;;;;23.85;14.32;;;;;;;3.54;100.00;98899.50;4709981;30;20055;-84
2022/01/09 04:02:53;;;;;;;26.48;13.82;;;;;;;3.57;100.00;98897.75;4703539;30;20056;-82
2022/01/09 04:05:22;;;;;;;20.35;11.98;;;;;;;3.62;100.00;98902.97;4715850;30;20366;-82
2022/01/09 04:07:51;;;;;;;20.00;10.15;;;;;;;3.67;100.00;98916.88;4734134;30;20052;-81
2022/01/09 04:10:43;;;;;;;25.90;11.00;;;;;;;3.73;100.00;98918.63;4753466;30;20060;-83
2022/01/09 04:13:12;;;;;;;15.38;6.88;;;;;;;3.75;100.00;98909.91;4755011;30;20063;-82
2022/01/09 04:15:46;;;;;;;24.17;5.67;;;;;;;3.81;100.00;98917.72;4748231;30;20070;-82
2022/01/09 04:18:20;;;;;;;15.32;4.25;;;;;;;3.87;100.00;98919.47;4704101;30;20040;-83
2022/01/09 04:20:50;;;;;;;24.92;4.32;;;;;;;3.91;100.00;98934.22;4751599;30;20036;-82
2022/01/09 04:23:19;;;;;;;23.02;3.88;;;;;;;3.94;100.00;98928.16;4756271;29;20812;-82
2022/01/09 04:25:49;;;;;;;23.33;3.55;;;;;;;3.98;100.00;98929.88;4745093;30;20055;-82
2022/01/09 04:28:18;;;;;;;28.00;3.70;;;;;;;4.01;100.00;98949.00;4751038;30;20239;-82
2022/01/09 04:30:46;;;;;;;27.17;4.70;;;;;;;4.04;100.00;98942.91;4783777;29;20043;-82
2022/01/09 04:33:15;;;;;;;24.40;4.40;;;;;;;4.06;100.00;98944.66;4713180;30;20055;-82
2022/01/09 04:35:44;;;;;;;24.67;3.78;;;;;;;4.08;100.00;98942.03;4749147;30;20052;-82
2022/01/09 04:38:15;;;;;;;26.40;3.83;;;;;;;4.10;100.00;98949.00;4765485;30;20076;-84
2022/01/09 04:40:44;;;;;;;33.13;4.55;;;;;;;4.15;100.00;98948.13;4726514;30;20056;-82
2022/01/09 04:43:14;;;;;;;32.97;4.18;;;;;;;4.15;100.00;98954.19;4740542;30;20059;-83
2022/01/09 04:45:42;;;;;;;28.15;4.15;;;;;;;4.17;100.00;98947.22;4778039;30;20050;-82
2022/01/09 04:48:13;;;;;;;29.67;4.18;;;;;;;4.18;100.00;98946.38;4704689;30;20400;-84
2022/01/09 04:50:44;;;;;;;32.65;4.60;;;;;;;4.21;100.00;98961.13;4765685;30;20507;-82
2022/01/09 04:53:13;;;;;;;28.92;4.05;;;;;;;4.21;100.00;98962.00;4755111;30;20039;-84
2022/01/09 04:55:49;;;;;;;37.83;5.55;;;;;;;4.21;100.00;98966.34;4762330;30;20530;-82
2022/01/09 04:58:19;;;;;;;40.08;4.88;;;;;;;4.22;100.00;98973.31;4737161;30;20274;-82
2022/01/09 05:00:47;;;;;;;29.52;4.50;;;;;;;4.24;100.00;98984.59;4779472;29;20052;-82
2022/01/09 05:03:18;;;;;;;36.13;5.45;;;;;;;4.25;100.00;98983.72;4719666;30;20071;-82
2022/01/09 05:05:48;;;;;;;42.75;5.90;;;;;;;4.27;100.00;98993.28;4751695;30;20499;-83
2022/01/09 05:08:16;;;;;;;42.22;6.10;;;;;;;4.31;100.00;98999.38;4747968;30;20163;-82
2022/01/09 05:10:45;;;;;;;55.30;8.70;;;;;;;4.36;100.00;99013.25;4736797;30;20059;-82
2022/01/09 05:13:16;;;;;;;53.05;8.80;;;;;;;4.40;100.00;99007.16;4720123;30;20044;-82
2022/01/09 05:15:45;;;;;;;44.13;6.85;;;;;;;4.49;100.00;99014.97;4738532;30;20066;-83
2022/01/09 05:18:14;;;;;;;62.58;7.07;;;;;;;4.54;100.00;99027.13;4765415;30;20051;-84
2022/01/09 05:20:43;;;;;;;69.15;7.78;;;;;;;4.61;100.00;99031.47;4733609;30;20055;-82
2022/01/09 05:23:12;;;;;;;62.60;6.47;;;;;;;4.66;100.00;99032.34;4727864;30;20062;-83
2022/01/09 05:25:41;;;;;;;57.50;7.15;;;;;;;4.68;100.00;99036.69;4734569;30;20058;-82
2022/01/09 05:28:10;;;;;;;47.55;7.50;;;;;;;4.72;100.00;99036.69;4736374;30;20050;-83
2022/01/09 05:30:38;;;;;;;46.08;6.93;;;;;;;4.74;100.00;99037.56;4757645;30;20051;-82
2022/01/09 05:33:07;;;;;;;39.08;6.28;;;;;;;4.74;100.00;99046.25;4747483;30;20066;-82
2022/01/09 05:35:36;;;;;;;48.53;7.35;;;;;;;4.75;100.00;99055.81;4729381;30;20052;-82
2022/01/09 05:38:05;;;;;;;51.03;8.35;;;;;;;4.76;100.00;99060.16;4749955;30;20066;-83
2022/01/09 05:40:35;;;;;;;55.90;7.97;;;;;;;4.77;100.00;99074.09;4758028;30;20597;-81
2022/01/09 05:43:04;;;;;;;41.95;6.95;;;;;;;4.78;100.00;99075.81;4750948;30;20058;-82
2022/01/09 05:45:32;;;;;;;42.03;6.65;;;;;;;4.79;100.00;99081.03;4721291;30;20435;-83
2022/01/09 05:48:04;;;;;;;43.60;7.05;;;;;;;4.81;100.00;99086.25;4749484;30;20047;-81
2022/01/09 05:50:34;;;;;;;45.90;6.80;;;;;;;4.80;100.00;99090.63;4753252;30;20569;-82
2022/01/09 05:53:03;;;;;;;40.65;5.97;;;;;;;4.80;100.00;99088.00;4717736;30;20048;-83
2022/01/09 05:55:31;;;;;;;42.03;6.18;;;;;;;4.81;100.00;99104.53;4765558;30;20176;-82
2022/01/09 05:57:59;;;;;;;32.83;6.53;;;;;;;4.79;100.00;99101.03;4756398;30;20062;-84
2022/01/09 06:00:28;;;;;;;33.10;5.50;;;;;;;4.76;100.00;99101.91;4769298;29;20118;-82
2022/01/09 06:02:56;;;;;;;32.45;6.10;;;;;;;4.76;100.00;99104.50;4771233;30;20043;-82
2022/01/09 06:05:25;;;;;;;35.67;6.05;;;;;;;4.76;100.00;99107.13;4738179;30;20720;-82
2022/01/09 06:07:54;;;;;;;31.13;4.57;;;;;;;4.76;100.00;99114.09;4735621;30;20513;-83
2022/01/09 06:10:22;;;;;;;27.20;5.47;;;;;;;4.75;100.00;99123.66;4747087;30;20164;-82
2022/01/09 06:12:51;;;;;;;33.97;5.40;;;;;;;4.75;100.00;99128.88;4737912;30;20527;-83
2022/01/09 06:15:19;;;;;;;43.38;6.70;;;;;;;4.75;100.00;99125.41;4752242;30;20094;-82
2022/01/09 06:17:48;;;;;;;32.60;5.10;;;;;;;4.75;100.00;99128.03;4757601;30;20580;-82
2022/01/09 06:20:17;;;;;;;35.80;6.20;;;;;;;4.75;100.00;99139.31;4761675;30;20167;-82
2022/01/09 06:22:45;;;;;;;28.67;5.35;;;;;;;4.75;100.00;99146.28;4752890;30;20036;-83
2022/01/09 06:25:15;;;;;;;34.67;5.90;;;;;;;4.75;100.00;99152.38;4744842;30;20180;-83
2022/01/09 06:27:43;;;;;;;39.05;4.90;;;;;;;4.74;100.00;99150.63;4768303;30;20059;-82
2022/01/09 06:30:12;;;;;;;27.17;4.82;;;;;;;4.74;100.00;99166.28;4767492;30;20534;-82
2022/01/09 06:32:41;;;;;;;28.25;4.15;;;;;;;4.73;100.00;99163.69;4762273;30;20059;-83
2022/01/09 06:35:10;;;;;;;32.03;6.13;;;;;;;4.72;100.00;99175.84;4732902;30;20043;-82
2022/01/09 06:37:39;;;;;;;25.60;5.25;;;;;;;4.70;100.00;99180.19;4752515;30;20055;-83
2022/01/09 06:40:08;;;;;;;25.95;4.60;;;;;;;4.72;100.00;99190.63;4749827;30;20545;-82
2022/01/09 06:42:38;;;;;;;29.45;5.20;;;;;;;4.70;100.00;99193.25;4753033;30;20067;-82
2022/01/09 06:45:07;;;;;;;30.02;4.70;;;;;;;4.71;100.00;99194.09;4731217;30;20059;-83
2022/01/09 06:47:35;;;;;;;31.48;4.88;;;;;;;4.72;100.00;99208.91;4715754;30;20075;-84
2022/01/09 06:50:05;;;;;;;36.33;4.93;;;;;;;4.70;100.00;99211.50;4751043;30;20066;-82
2022/01/09 06:52:33;;;;;;;26.20;4.95;;;;;;;4.70;100.00;99214.13;4785344;30;20044;-82
2022/01/09 06:55:05;;;;;;;30.90;4.32;;;;;;;4.70;100.00;99227.16;4733809;30;20047;-82
2022/01/09 06:57:34;;;;;;;32.50;4.63;;;;;;;4.69;100.00;99228.06;4761616;30;20051;-82
2022/01/09 07:00:04;;;;;;;30.02;4.18;;;;;;;4.67;100.00;99233.25;4751689;30;20048;-84
2022/01/09 07:02:33;;;;;;;30.90;5.07;;;;;;;4.67;100.00;99243.69;4744537;30;20184;-84
2022/01/09 07:05:03;;;;;;;26.30;4.88;;;;;;;4.65;100.00;99241.94;4738716;30;20032;-83
2022/01/09 07:07:32;;;;;;;24.50;4.25;;;;;;;4.65;100.00;99245.44;4755055;30;20355;-83
2022/01/09 07:10:00;;;;;;;23.20;4.85;;;;;;;4.65;100.00;99249.75;4754407;30;20052;-82
2022/01/09 07:12:29;;;;;;;24.70;4.30;;;;;;;4.65;100.00;99261.09;4754724;30;20055;-82
2022/01/09 07:14:57;;;;;;;23.08;4.00;;;;;;;4.64;100.00;99264.56;4711554;30;20040;-83
2022/01/09 07:17:26;;;;;;;29.77;4.35;;;;;;;4.64;100.00;99264.56;4749885;30;20846;-82
2022/01/09 07:19:54;;;;;;;23.67;4.40;;;;;;;4.64;100.00;99271.53;4722756;30;20059;-83
2022/01/09 07:22:23;;;;;;;28.02;4.82;;;;;;;4.64;100.00;99279.34;4740938;30;20360;-83
2022/01/09 07:24:51;;;;;;;47.15;6.22;;;;;;;4.64;100.00;99289.78;4756807;30;20055;-82
2022/01/09 07:27:20;;;;;;;26.25;4.65;;;;;;;4.63;100.00;99296.75;4699107;30;20063;-82
2022/01/09 07:29:48;;;;;;;24.30;4.00;;;;;;;4.63;100.00;99304.56;4754995;30;20039;-83
2022/01/09 07:32:17;;;;;;;22.08;4.90;;;;;;;4.62;100.00;99300.22;4753595;30;20070;-82
2022/01/09 07:34:45;;;;;;;28.88;4.72;;;;;;;4.63;100.00;99308.91;4748571;30;20020;-82
2022/01/09 07:37:14;;;;;;;22.17;4.25;;;;;;;4.62;100.00;99318.47;4745629;30;20537;-83
2022/01/09 07:39:45;;;;;;;29.50;5.15;;;;;;;4.62;100.00;99322.84;4727871;30;20055;-82
2022/01/09 07:42:13;;;;;;;21.92;5.63;;;;;;;4.61;100.00;99321.06;4723458;30;20836;-83
2022/01/09 07:44:42;;;;;;;25.05;4.25;;;;;;;4.59;100.00;99323.66;4737859;30;20044;-83
2022/01/09 07:47:11;;;;;;;24.15;4.75;;;;;;;4.60;100.00;99338.47;4711922;30;20427;-83
2022/01/09 07:49:39;;;;;;;18.65;3.35;;;;;;;4.59;100.00;99336.72;4754579;30;20048;-82
2022/01/09 07:52:08;;;;;;;17.08;4.35;;;;;;;4.57;100.00;99335.84;4749710;30;20825;-83
2022/01/09 07:54:36;;;;;;;29.10;4.38;;;;;;;4.58;100.00;99345.44;4748277;30;20043;-84
2022/01/09 07:57:05;;;;;;;26.20;4.07;;;;;;;4.58;100.00;99353.25;4702288;30;20407;-83
2022/01/09 07:59:34;;;;;;;29.02;4.50;;;;;;;4.57;100.00;99358.47;4740281;30;20058;-82
2022/01/09 08:02:02;;;;;;;22.20;4.38;;;;;;;4.56;100.00;99368.03;4741828;30;20043;-83
2022/01/09 08:04:33;;;;;;;20.30;3.70;;;;;;;4.55;100.00;99365.41;4742207;30;20052;-83
2022/01/09 08:07:04;;;;;;;;;;;;;;;4.55;100.00;99373.25;4753122;30;20058;-82
2022/01/09 08:09:32;;;;;;;25.80;4.40;;;;;;;4.54;100.00;99382.81;4727281;30;19964;-84
2022/01/09 08:12:01;;;;;;;18.13;3.92;;;;;;;4.54;100.00;99392.34;4746210;30;20047;-85
2022/01/09 08:14:29;;;;;;;25.63;4.20;;;;;;;4.55;100.00;99396.72;4716964;30;20168;-82
2022/01/09 08:16:59;;;;;;;25.52;4.70;;;;;;;4.53;100.00;99401.94;4766563;30;20055;-82
2022/01/09 08:19:30;;;;;;;20.45;4.05;;;;;;;4.53;100.00;99404.53;4750562;30;20058;-81
2022/01/09 08:21:59;;;;;;;17.27;4.40;;;;;;;4.53;100.00;99416.72;4727477;30;20055;-83
2022/01/09 08:24:27;;;;;;;26.33;4.30;;;;;;;4.52;100.00;99418.47;4766429;30;20047;-83
2022/01/09 08:26:56;;;;;;;30.25;4.03;;;;;;;4.53;100.00;99420.19;4743770;30;20075;-83
2022/01/09 08:29:25;;;;;;;16.92;3.22;;;;;;;4.54;100.00;99424.56;4730954;30;20054;-83
2022/01/09 08:31:54;;;;;;;28.58;4.85;;;;;;;4.53;100.00;99428.00;4742798;30;20411;-83
2022/01/09 08:34:22;;;;;;;19.33;3.58;;;;;;;4.56;100.00;99440.22;4747708;30;20063;-83
2022/01/09 08:36:51;;;;;;;19.08;3.63;;;;;;;4.53;100.00;99433.22;4738153;30;20040;-82
2022/01/09 08:39:19;;;;;;;21.10;3.65;;;;;;;4.55;100.00;99436.72;4749770;30;20055;-85
2022/01/09 08:41:51;;;;;;;15.90;3.53;;;;;;;4.55;100.00;99431.50;4740249;30;20062;-84
2022/01/09 08:44:24;;;;;;;21.33;3.55;;;;;;;4.53;100.00;99433.22;4732001;30;20043;-82
2022/01/09 08:46:52;;;;;;;26.23;4.15;;;;;;;4.54;100.00;99441.91;4742732;30;20039;-83
2022/01/09 08:49:21;;;;;;;18.98;3.67;;;;;;;4.54;100.00;99445.44;4733200;30;20052;-82
2022/01/09 08:51:49;;;;;;;35.47;4.88;;;;;;;4.53;100.00;99453.25;4730262;30;20055;-83
2022/01/09 08:54:18;;;;;;;24.83;4.00;;;;;;;4.50;100.00;99459.31;4703857;30;20054;-84
2022/01/09 08:56:46;;;;;;;17.52;3.83;;;;;;;4.48;100.00;99451.47;4715282;30;20048;-82
2022/01/09 08:59:16;;;;;;;15.30;4.20;;;;;;;4.45;100.00;99455.81;4712277;30;20048;-84
2022/01/09 09:01:46;;;;;;;25.50;3.45;;;;;;;4.46;100.00;99467.97;4734564;30;20047;-85
2022/01/09 09:04:16;;;;;;;17.50;2.80;;;;;;;4.46;100.00;99467.97;4735334;30;20047;-82
2022/01/09 09:06:45;;;;;;;20.42;3.42;;;;;;;4.47;100.00;99469.72;4748907;30;20052;-83
2022/01/09 09:09:13;;;;;;;16.75;3.08;;;;;;;4.48;100.00;99468.88;4741975;30;20039;-83
2022/01/09 09:11:42;;;;;;;17.52;3.35;;;;;;;4.50;100.00;99482.81;4737085;30;20040;-83
2022/01/09 09:14:10;;;;;;;12.00;2.85;;;;;;;4.51;100.00;99476.69;4710134;30;20044;-82
2022/01/09 09:16:39;;;;;;;10.80;2.03;;;;;;;4.53;100.00;99484.53;4733743;30;20051;-82
2022/01/09 09:19:07;;;;;;;13.68;2.10;;;;;;;4.56;100.00;99493.25;4714215;30;20044;-84
2022/01/09 09:21:43;;;;;;;10.45;2.13;;;;;;;4.55;100.00;99483.69;4701569;30;20183;-83
2022/01/09 09:24:13;;;;;;;11.45;2.63;;;;;;;4.59;100.00;99489.78;4713699;30;20048;-83
2022/01/09 09:26:41;;;;;;;13.07;2.35;;;;;;;4.61;100.00;99496.78;4725713;30;20051;-83
2022/01/09 09:29:10;;;;;;;9.05;2.20;;;;;;;4.64;100.00;99502.00;4710845;30;20060;-84
2022/01/09 09:31:39;;;;;;;11.20;2.40;;;;;;;4.65;100.00;99502.88;4709696;30;20268;-83
2022/01/09 09:34:08;;;;;;;13.25;2.55;;;;;;;4.69;100.00;99509.88;4738175;30;20044;-82
2022/01/09 09:36:36;;;;;;;6.97;2.38;;;;;;;4.74;100.00;99512.50;4721223;30;20747;-83
2022/01/09 09:39:08;;;;;;;14.00;2.83;;;;;;;4.77;100.00;99526.44;4722827;30;20055;-83
2022/01/09 09:41:38;;;;;;;8.52;2.35;;;;;;;4.83;100.00;99531.69;4710457;30;20082;-82
2022/01/09 09:44:09;;;;;;;13.43;2.63;;;;;;;4.87;100.00;99540.41;4716502;30;20499;-84
2022/01/09 09:46:39;;;;;;;16.10;2.67;;;;;;;4.89;100.00;99552.59;4716011;30;20193;-82
2022/01/09 09:49:07;;;;;;;15.48;2.75;;;;;;;4.89;100.00;99549.09;4726996;30;20048;-82
2022/01/09 09:51:36;;;;;;;18.85;3.38;;;;;;;4.92;100.00;99556.09;4701255;30;20071;-82
2022/01/09 09:54:04;;;;;;;16.58;3.03;;;;;;;4.92;100.00;99562.19;4733645;30;20051;-83
2022/01/09 09:56:33;;;;;;;20.58;3.38;;;;;;;4.93;100.00;99563.91;4718276;30;20075;-82
2022/01/09 09:59:02;;;;;;;19.75;4.38;;;;;;;4.90;100.00;99563.91;4731210;30;20057;-83
2022/01/09 10:01:36;;;;;;;19.95;3.63;;;;;;;4.89;100.00;99573.47;4702624;30;20049;-81
2022/01/09 10:04:09;;;;;;;24.48;4.00;;;;;;;4.88;100.00;99576.09;4692042;30;20048;-82
2022/01/09 10:06:41;;;;;;;21.25;3.75;;;;;;;4.86;100.00;99575.22;4705344;30;20177;-81
2022/01/09 10:09:15;;;;;;;19.13;3.65;;;;;;;4.87;100.00;99582.16;4720107;30;20527;-83
2022/01/09 10:11:49;;;;;;;12.70;2.35;;;;;;;4.88;100.00;99583.94;4736785;30;20059;-83
2022/01/09 10:14:20;;;;;;;18.83;3.70;;;;;;;4.88;100.00;99586.53;4711490;30;20035;-83
2022/01/09 10:17:04;;;;;;;22.40;3.70;;;;;;;4.89;100.00;99588.25;4694035;30;20059;-82
2022/01/09 10:19:45;;;;;;;35.95;4.50;;;;;;;4.93;100.00;99595.25;4730103;30;20055;-83
2022/01/09 10:22:33;;;;;;;20.85;4.40;;;;;;;4.98;100.00;99603.13;4718078;30;20044;-84
2022/01/09 10:25:26;;;;;;;27.42;4.18;;;;;;;5.02;100.00;99605.75;4725416;30;20048;-83
2022/01/09 10:28:02;;;;;;;19.65;3.58;;;;;;;5.06;100.00;99610.13;4726622;30;20059;-84
2022/01/09 10:30:35;;;;;;;22.92;3.65;;;;;;;5.11;100.00;99611.91;4740183;30;20276;-84
2022/01/09 10:33:07;;;;;;;23.55;3.08;;;;;;;5.11;100.00;99622.34;4723715;30;20062;-83
2022/01/09 10:35:40;;;;;;;16.98;2.72;;;;;;;5.13;100.00;99616.25;4725733;30;20075;-82
2022/01/09 10:38:17;;;;;;;23.30;3.80;;;;;;;5.16;100.00;99623.22;4709033;30;20071;-83
2022/01/09 10:40:52;;;;;;;14.85;3.00;;;;;;;5.19;100.00;99628.47;4729163;30;20052;-84
2022/01/09 10:43:22;;;;;;;13.57;3.22;;;;;;;5.23;100.00;99630.25;4740719;30;20439;-82
2022/01/09 10:45:58;;;;;;;;;;;;;;;5.27;100.00;99632.91;4728843;30;20524;-83
2022/01/09 10:48:40;;;;;;;17.40;3.35;;;;;;;5.30;100.00;99637.25;4705518;30;19967;-84
2022/01/09 10:51:11;;;;;;;19.10;3.55;;;;;;;5.35;100.00;99645.09;4748747;30;20059;-83
2022/01/09 10:53:42;;;;;;;16.67;3.40;;;;;;;5.38;100.00;99645.13;4749054;30;20044;-84
2022/01/09 10:56:13;;;;;;;22.80;3.42;;;;;;;5.39;100.00;99645.13;4745923;30;20043;-84
2022/01/09 10:58:46;;;;;;;;;;;;;;;5.40;100.00;99646.88;4756977;30;20048;-84
2022/01/09 11:01:20;;;;;;;17.05;3.38;;;;;;;5.45;100.00;99647.75;4744035;30;19925;-83
2022/01/09 11:03:58;;;;;;;26.48;4.25;;;;;;;5.50;100.00;99654.75;4700203;30;20052;-83
2022/01/09 11:06:32;;;;;;;21.40;3.35;;;;;;;5.52;100.00;99656.53;4729689;30;20056;-83
2022/01/09 11:09:03;;;;;;;19.02;3.20;;;;;;;5.57;100.00;99657.41;4747819;30;20060;-79
2022/01/09 11:11:40;;;;;;;16.40;3.13;;;;;;;5.62;100.00;99665.28;4723632;30;20060;-84
2022/01/09 11:14:14;;;;;;;15.25;3.40;;;;;;;5.69;100.00;99667.06;4731331;30;20072;-82
2022/01/09 11:16:54;;;;;;;23.00;3.08;;;;;;;5.73;100.00;99676.66;4726882;30;20059;-84
2022/01/09 11:19:25;;;;;;;15.60;3.03;;;;;;;5.76;100.00;99679.25;4727164;30;20189;-83
2022/01/09 11:22:01;;;;;;;;;;;;;;;5.77;100.00;99688.84;4726858;30;20060;-81
2022/01/09 11:24:57;;;;;;;19.20;3.95;;;;;;;5.79;100.00;99694.97;4741480;30;19926;-82
2022/01/09 11:27:50;;;;;;;18.65;3.60;;;;;;;5.82;100.00;99700.22;4738365;30;20060;-83
2022/01/09 11:30:33;;;;;;;20.58;2.83;;;;;;;5.80;100.00;99701.06;4711141;30;20155;-81
2022/01/09 11:33:14;;;;;;;16.90;2.63;;;;;;;5.76;100.00;99708.00;4759574;30;20056;-80
2022/01/09 11:35:48;;;;;;;;;;;;;;;5.75;100.00;99715.88;4724106;30;20047;-81
2022/01/09 11:38:31;;;;;;;16.60;2.92;;;;;;;5.75;100.00;99721.97;4746492;30;20202;-82